Du har inga inställningar för hoppväder.nu

Hoppväder.nu

Senast uppdaterat 05:25

UTC-tid

2020-01-29 kl. 04:25


Sol och måne

Solen går upp 8:30 och går ner 16:26 (beräknade cirkatider)
Nästa fullmåne blir om 11 dagar (2020-02-09)

METAR

ENRY (Moss, Rygge)
(35 minuter sedan)
ENRY 290350Z AUTO 05004KT 9999NDV OVC005/// 02/02 Q0984 REUP=



ESGT (Trollhättan/Vänersborg)
(35 minuter sedan)
ESGT 290350Z AUTO 13007KT 8000 BKN006/// BKN008/// OVC015/// 03/03 Q0984 REDZ=



ENTO (Sandefjord)
(35 minuter sedan)
ENTO 290350Z AUTO 01008KT 5000 OVC002/// 01/01 Q0983=



ESIB (Såtenäs)
(35 minuter sedan)
ESIB 290350Z AUTO 14008KT 9999 FEW007/// BKN011/// OVC015/// 03/03 Q0984=



ESOK (Karlstad)
(35 minuter sedan)
ESOK 290350Z AUTO 10005KT 7000 -DZ OVC002/// 01/01 Q0985 RESG=



TAF

ENRY (Moss, Rygge)
(325 minuter sedan)
ENRY 282300Z 2900/2924 03008KT 8000 -RA SCT003 BKN010 TEMPO 2900/2910 2000 -RADZ BR OVC003 TEMPO 2910/2916 4000 RA BKN006 PROB30 2916/2924 BKN009=



ESGT (Trollhättan/Vänersborg)
ESGT



ENTO (Sandefjord)
(325 minuter sedan)
ENTO 282300Z 2900/2924 01008KT 8000 -RA SCT002 BKN010 TEMPO 2900/2912 2000 -RADZ BR OVC002 TEMPO 2912/2915 4000 RA BKN006 PROB30 2915/2924 BKN009=



ESIB (Såtenäs)
ESIB



ESOK (Karlstad)
(55 minuter sedan)
ESOK 290330Z 2904/2912 09005KT 5000 -RA OVC002 TEMPO 2904/2906 2000 SG BECMG 2906/2907 BKN010 TEMPO 2907/2912 2500 BR BKN006=





Kodnycklar till TAF och METAR






LHP

(Näsinge är område I2b i Norra delen)

Prognos är inte uppdaterad




Spotting

Hur fungerar spotthjälpen och Vindkartan?

Markvind är ca 0 m/s.



Vindkartan

Senast uppdaterad 05:25




All data kommer från LFV.se